createdAt,value
2023-04-28T00:01:40.378Z,10.20
2023-04-28T00:04:12.553Z,10.20
2023-04-28T00:06:44.628Z,10.20
2023-04-28T00:09:16.656Z,10.30
2023-04-28T00:11:48.624Z,10.30
2023-04-28T00:14:20.438Z,10.30
2023-04-28T00:16:52.477Z,10.20
2023-04-28T00:19:24.348Z,10.20
2023-04-28T00:21:56.083Z,10.30
2023-04-28T00:24:27.780Z,10.30
2023-04-28T00:26:59.705Z,10.30
2023-04-28T00:29:31.528Z,10.30
2023-04-28T00:32:03.735Z,10.30
2023-04-28T00:34:37.399Z,10.30
2023-04-28T00:37:09.072Z,10.30
2023-04-28T00:39:41.701Z,10.40
2023-04-28T00:42:14.560Z,10.40
2023-04-28T00:44:46.650Z,10.40
2023-04-28T00:47:19.226Z,10.40
2023-04-28T00:49:50.969Z,10.40
2023-04-28T00:52:22.672Z,10.30
2023-04-28T00:54:55.657Z,10.30
2023-04-28T00:57:27.464Z,10.30
2023-04-28T00:59:59.289Z,10.20
2023-04-28T01:02:31.812Z,10.20
2023-04-28T01:05:04.128Z,10.20
2023-04-28T01:07:37.148Z,10.20
2023-04-28T01:10:09.475Z,10.30
2023-04-28T01:12:41.332Z,10.30
2023-04-28T01:15:17.835Z,10.30
2023-04-28T01:17:49.779Z,10.30
2023-04-28T01:20:21.577Z,10.40
2023-04-28T01:22:53.317Z,10.40
2023-04-28T01:25:25.180Z,10.40
2023-04-28T01:27:56.944Z,10.40
2023-04-28T01:30:28.657Z,10.40
2023-04-28T01:33:00.842Z,10.40
2023-04-28T01:35:32.582Z,10.40
2023-04-28T01:38:04.396Z,10.40
2023-04-28T01:40:36.317Z,10.40
2023-04-28T01:43:08.042Z,10.50
2023-04-28T01:45:39.770Z,10.50
2023-04-28T01:48:11.640Z,10.50
2023-04-28T01:50:43.462Z,10.60
2023-04-28T01:53:15.387Z,10.70
2023-04-28T01:55:47.971Z,10.70
2023-04-28T01:58:19.861Z,10.70
2023-04-28T02:00:51.561Z,10.70
2023-04-28T02:03:23.471Z,10.60
2023-04-28T02:05:55.427Z,10.60
2023-04-28T02:08:27.151Z,10.50
2023-04-28T02:10:58.885Z,10.50
2023-04-28T02:13:30.680Z,10.40
2023-04-28T02:16:02.708Z,10.40
2023-04-28T02:18:36.183Z,10.30
2023-04-28T02:21:12.240Z,10.30
2023-04-28T02:23:44.021Z,10.30
2023-04-28T02:26:17.000Z,10.30
2023-04-28T02:28:49.217Z,10.30
2023-04-28T02:31:21.099Z,10.30
2023-04-28T02:33:53.114Z,10.30
2023-04-28T02:36:25.025Z,10.40
2023-04-28T02:38:56.757Z,10.40
2023-04-28T02:41:30.026Z,10.40
2023-04-28T02:44:01.701Z,10.40
2023-04-28T02:46:33.410Z,10.40
2023-04-28T02:49:05.192Z,10.40
2023-04-28T02:51:36.991Z,10.40
2023-04-28T02:54:08.872Z,10.40
2023-04-28T02:56:41.293Z,10.40
2023-04-28T02:59:13.095Z,10.40
2023-04-28T03:01:44.808Z,10.40
2023-04-28T03:04:17.173Z,10.40
2023-04-28T03:06:49.196Z,10.50
2023-04-28T03:09:20.987Z,10.50
2023-04-28T03:11:52.802Z,10.50
2023-04-28T03:14:24.604Z,10.50
2023-04-28T03:16:57.925Z,10.60
2023-04-28T03:19:29.658Z,10.60
2023-04-28T03:22:01.389Z,10.60
2023-04-28T03:24:33.083Z,10.60
2023-04-28T03:27:05.798Z,10.60
2023-04-28T03:29:37.526Z,10.50
2023-04-28T03:32:09.354Z,10.50
2023-04-28T03:34:41.612Z,10.50
2023-04-28T03:37:14.000Z,10.50
2023-04-28T03:39:45.941Z,10.50
2023-04-28T03:42:17.708Z,10.60
2023-04-28T03:44:49.460Z,10.60
2023-04-28T03:47:21.325Z,10.60
2023-04-28T03:49:53.053Z,10.70
2023-04-28T03:52:25.907Z,10.70
2023-04-28T03:54:57.626Z,10.70
2023-04-28T03:57:29.781Z,10.70
2023-04-28T04:00:01.700Z,10.70
2023-04-28T04:02:33.622Z,10.80
2023-04-28T04:05:05.777Z,10.80
2023-04-28T04:07:37.696Z,10.70
2023-04-28T04:10:10.011Z,10.80
2023-04-28T04:12:41.815Z,10.80
2023-04-28T04:15:13.689Z,10.90
2023-04-28T04:17:45.466Z,11.20
2023-04-28T04:20:17.333Z,11.40
2023-04-28T04:22:49.121Z,11.50
2023-04-28T04:25:23.157Z,11.60
2023-04-28T04:27:55.067Z,11.60
2023-04-28T04:30:26.760Z,11.70
2023-04-28T04:32:58.580Z,11.70
2023-04-28T04:35:30.880Z,11.70
2023-04-28T04:38:03.432Z,11.60
2023-04-28T04:40:35.179Z,11.50
2023-04-28T04:43:07.004Z,11.40
2023-04-28T04:45:39.382Z,11.40
2023-04-28T04:48:11.408Z,11.40
2023-04-28T04:50:43.737Z,11.30
2023-04-28T04:53:16.593Z,11.30
2023-04-28T04:55:48.449Z,11.40
2023-04-28T04:58:20.531Z,11.40
2023-04-28T05:00:52.262Z,11.40
2023-04-28T05:03:24.348Z,11.30
2023-04-28T05:05:56.301Z,11.30
2023-04-28T05:08:28.063Z,11.30
2023-04-28T05:10:59.862Z,11.20
2023-04-28T05:13:31.593Z,11.30
2023-04-28T05:16:03.613Z,11.30
2023-04-28T05:18:35.897Z,11.20
2023-04-28T05:21:07.649Z,11.30
2023-04-28T05:23:39.340Z,11.30
2023-04-28T05:26:11.106Z,11.30
2023-04-28T05:28:44.156Z,11.20
2023-04-28T05:31:16.557Z,11.10
2023-04-28T05:33:48.319Z,11.10
2023-04-28T05:36:20.063Z,11.00
2023-04-28T05:38:51.795Z,11.00
2023-04-28T05:41:23.559Z,11.00
2023-04-28T05:43:55.410Z,11.00
2023-04-28T05:46:30.748Z,11.00
2023-04-28T05:49:03.171Z,11.10
2023-04-28T05:51:35.038Z,11.20
2023-04-28T05:54:07.004Z,11.20
2023-04-28T05:56:39.007Z,11.30
2023-04-28T05:59:10.853Z,11.40
2023-04-28T06:01:42.691Z,11.40
2023-04-28T06:04:14.853Z,11.50
2023-04-28T06:06:47.134Z,11.40
2023-04-28T06:09:19.169Z,11.50
2023-04-28T06:11:51.123Z,11.50
2023-04-28T06:14:23.209Z,11.50
2023-04-28T06:16:55.048Z,11.50
2023-04-28T06:19:27.060Z,11.60
2023-04-28T06:21:58.809Z,11.60
2023-04-28T06:24:30.590Z,11.60
2023-04-28T06:27:02.813Z,11.70
2023-04-28T06:29:34.637Z,11.70
2023-04-28T06:32:06.700Z,11.80
2023-04-28T06:34:38.418Z,11.80
2023-04-28T06:37:10.185Z,11.80
2023-04-28T06:39:41.848Z,11.90
2023-04-28T06:42:13.634Z,12.00
2023-04-28T06:44:45.711Z,12.00
2023-04-28T06:47:17.474Z,12.00
2023-04-28T06:49:50.167Z,12.10
2023-04-28T06:52:27.205Z,12.10
2023-04-28T06:55:06.932Z,12.10
2023-04-28T06:57:38.701Z,12.10
2023-04-28T07:00:11.625Z,12.20
2023-04-28T07:02:43.619Z,12.20
2023-04-28T07:05:16.568Z,12.20
2023-04-28T07:07:48.549Z,12.30
2023-04-28T07:10:20.379Z,12.30
2023-04-28T07:12:52.347Z,12.40
2023-04-28T07:15:24.596Z,12.40
2023-04-28T07:17:56.379Z,12.40
2023-04-28T07:20:28.084Z,12.40
2023-04-28T07:22:59.746Z,12.40
2023-04-28T07:25:32.218Z,12.40
2023-04-28T07:28:05.712Z,12.40
2023-04-28T07:30:37.504Z,12.40
2023-04-28T07:33:09.392Z,12.40
2023-04-28T07:35:41.184Z,12.40
2023-04-28T07:38:12.920Z,12.40
2023-04-28T07:40:44.736Z,12.40
2023-04-28T07:43:16.704Z,12.40
2023-04-28T07:45:49.698Z,12.30
2023-04-28T07:48:21.684Z,12.30
2023-04-28T07:50:53.802Z,12.20
2023-04-28T07:53:25.554Z,12.20
2023-04-28T07:55:57.491Z,12.20
2023-04-28T07:58:29.258Z,12.10
2023-04-28T08:01:00.957Z,12.10
2023-04-28T08:03:32.932Z,12.10
2023-04-28T08:06:05.035Z,12.10
2023-04-28T08:08:37.143Z,12.10
2023-04-28T08:11:08.962Z,12.10
2023-04-28T08:13:40.891Z,12.20
2023-04-28T08:16:12.790Z,12.20
2023-04-28T08:18:45.793Z,12.20
2023-04-28T08:21:17.663Z,12.20
2023-04-28T08:23:49.336Z,12.20
2023-04-28T08:26:21.278Z,12.20
2023-04-28T08:28:53.424Z,12.20
2023-04-28T08:31:25.343Z,12.20
2023-04-28T08:33:57.120Z,12.30
2023-04-28T08:36:32.443Z,12.30
2023-04-28T08:39:07.852Z,12.40
2023-04-28T08:41:40.347Z,12.50
2023-04-28T08:44:12.384Z,12.50
2023-04-28T08:46:45.369Z,12.60
2023-04-28T08:49:18.987Z,12.60
2023-04-28T08:51:57.355Z,12.60
2023-04-28T08:54:32.797Z,12.60
2023-04-28T08:57:07.696Z,12.70
2023-04-28T08:59:42.643Z,12.70
2023-04-28T09:02:14.793Z,12.70
2023-04-28T09:04:49.611Z,12.80
2023-04-28T09:07:21.742Z,12.90
2023-04-28T09:10:18.196Z,12.90
2023-04-28T09:12:55.187Z,12.90
2023-04-28T09:15:36.182Z,12.80
2023-04-28T09:18:15.821Z,12.80
2023-04-28T09:20:47.636Z,12.80
2023-04-28T09:23:21.190Z,12.90
2023-04-28T09:25:59.194Z,13.00
2023-04-28T09:28:36.288Z,13.10
2023-04-28T09:31:24.154Z,13.30
2023-04-28T09:34:00.147Z,13.40
2023-04-28T09:36:32.631Z,13.50
2023-04-28T09:39:04.747Z,13.60
2023-04-28T09:41:40.610Z,13.80
2023-04-28T09:44:17.128Z,13.80
2023-04-28T09:46:49.217Z,14.00
2023-04-28T09:49:20.961Z,14.20
2023-04-28T09:51:52.739Z,14.40
2023-04-28T09:54:29.231Z,14.60
2023-04-28T09:57:01.087Z,14.70
2023-04-28T09:59:34.047Z,14.80
2023-04-28T10:02:22.640Z,15.10
2023-04-28T10:04:58.406Z,15.40
2023-04-28T10:07:35.014Z,15.90
2023-04-28T10:10:08.344Z,16.10
2023-04-28T10:12:40.214Z,16.10
2023-04-28T10:15:13.390Z,16.20
2023-04-28T10:17:46.342Z,16.20
2023-04-28T10:20:18.727Z,16.10
2023-04-28T10:22:59.882Z,16.10
2023-04-28T10:25:34.131Z,15.90
2023-04-28T10:28:08.618Z,15.90
2023-04-28T10:30:40.530Z,16.00
2023-04-28T10:33:15.478Z,16.20
2023-04-28T10:35:47.823Z,16.80
2023-04-28T10:38:21.974Z,17.20
2023-04-28T10:40:54.421Z,17.30
2023-04-28T10:43:27.125Z,17.10
2023-04-28T10:46:04.962Z,16.90
2023-04-28T10:48:48.893Z,16.70
2023-04-28T10:51:20.593Z,16.70
2023-04-28T10:53:52.481Z,16.70
2023-04-28T10:56:27.888Z,16.90
2023-04-28T10:59:00.417Z,17.10
2023-04-28T11:01:34.750Z,17.40
2023-04-28T11:04:14.020Z,17.60
2023-04-28T11:06:47.098Z,17.80
2023-04-28T11:09:18.763Z,17.80
2023-04-28T11:12:10.569Z,17.60
2023-04-28T11:14:43.269Z,17.30
2023-04-28T11:17:17.171Z,17.30
2023-04-28T11:19:49.683Z,17.20
2023-04-28T11:22:23.625Z,17.20
2023-04-28T11:25:00.748Z,17.20
2023-04-28T11:27:34.449Z,17.10
2023-04-28T11:30:22.289Z,17.30
2023-04-28T11:32:54.516Z,17.50
2023-04-28T11:35:43.530Z,18.00
2023-04-28T11:38:16.393Z,17.80
2023-04-28T11:40:58.484Z,18.00
2023-04-28T11:43:43.780Z,18.10
2023-04-28T11:46:25.341Z,18.20
2023-04-28T11:49:05.872Z,18.30
2023-04-28T11:51:38.893Z,18.60
2023-04-28T11:54:12.087Z,18.70
2023-04-28T11:56:44.951Z,18.50
2023-04-28T11:59:17.063Z,18.50
2023-04-28T12:01:57.039Z,18.40
2023-04-28T12:04:32.726Z,18.20
2023-04-28T12:07:10.569Z,17.70
2023-04-28T12:09:48.244Z,17.40
2023-04-28T12:15:09.479Z,16.90
2023-04-28T12:17:42.749Z,16.70
2023-04-28T12:20:35.188Z,16.70
2023-04-28T12:23:08.426Z,16.80
2023-04-28T12:25:48.002Z,17.00
2023-04-28T12:28:19.846Z,17.10
2023-04-28T12:31:03.869Z,17.40
2023-04-28T12:33:39.509Z,17.80
2023-04-28T12:36:12.043Z,18.10
2023-04-28T12:38:50.199Z,18.30
2023-04-28T12:41:21.983Z,18.30
2023-04-28T12:43:53.841Z,18.30
2023-04-28T12:46:25.618Z,18.30
2023-04-28T12:48:57.380Z,18.20
2023-04-28T12:51:29.707Z,18.10
2023-04-28T12:54:01.820Z,18.00
2023-04-28T12:56:33.955Z,17.90
2023-04-28T12:59:06.053Z,18.00
2023-04-28T13:01:38.093Z,17.90
2023-04-28T13:04:09.982Z,17.70
2023-04-28T13:06:44.121Z,17.70
2023-04-28T13:09:16.247Z,17.80
2023-04-28T13:11:47.981Z,18.00
2023-04-28T13:14:23.168Z,18.00
2023-04-28T13:16:55.191Z,18.10
2023-04-28T13:19:27.845Z,18.10
2023-04-28T13:22:00.115Z,18.20
2023-04-28T13:24:33.651Z,18.20
2023-04-28T13:27:09.467Z,18.10
2023-04-28T13:29:41.302Z,18.20
2023-04-28T13:32:13.207Z,18.10
2023-04-28T13:34:45.298Z,18.10
2023-04-28T13:37:17.200Z,18.00
2023-04-28T13:39:48.978Z,17.80
2023-04-28T13:42:20.763Z,17.60
2023-04-28T13:44:52.548Z,17.40
2023-04-28T13:47:24.512Z,17.30
2023-04-28T13:49:56.351Z,17.30
2023-04-28T13:52:28.097Z,17.30
2023-04-28T13:54:59.825Z,17.30
2023-04-28T13:57:31.769Z,17.20
2023-04-28T14:00:05.310Z,17.20
2023-04-28T14:02:37.476Z,17.10
2023-04-28T14:05:09.630Z,17.10
2023-04-28T14:07:41.413Z,17.20
2023-04-28T14:10:13.231Z,17.20
2023-04-28T14:12:45.000Z,17.10
2023-04-28T14:15:18.028Z,17.00
2023-04-28T14:17:49.944Z,16.80
2023-04-28T14:20:21.653Z,16.70
2023-04-28T14:22:53.574Z,16.50
2023-04-28T14:25:25.633Z,16.40
2023-04-28T14:27:58.034Z,16.20
2023-04-28T14:30:30.087Z,16.00
2023-04-28T14:33:01.871Z,15.80
2023-04-28T14:35:34.774Z,15.70
2023-04-28T14:38:06.496Z,15.70
2023-04-28T14:40:38.259Z,15.70
2023-04-28T14:43:10.017Z,15.80
2023-04-28T14:45:42.043Z,15.70
2023-04-28T14:48:15.152Z,15.70
2023-04-28T14:50:47.632Z,15.60
2023-04-28T14:53:19.467Z,15.50
2023-04-28T14:55:51.603Z,15.50
2023-04-28T14:58:23.305Z,15.40
2023-04-28T15:00:55.156Z,15.30
2023-04-28T15:03:27.556Z,15.20
2023-04-28T15:05:59.814Z,15.10
2023-04-28T15:08:33.254Z,15.10
2023-04-28T15:11:04.953Z,15.10
2023-04-28T15:13:36.666Z,15.10
2023-04-28T15:16:08.645Z,15.10
2023-04-28T15:18:40.475Z,15.10
2023-04-28T15:21:12.291Z,15.00
2023-04-28T15:23:44.005Z,14.90
2023-04-28T15:26:15.866Z,14.90
2023-04-28T15:28:47.578Z,14.80
2023-04-28T15:31:19.332Z,14.70
2023-04-28T15:33:54.213Z,14.60
2023-04-28T15:36:26.746Z,14.60
2023-04-28T15:38:58.437Z,14.60
2023-04-28T15:41:30.116Z,14.70
2023-04-28T15:44:02.227Z,14.70
2023-04-28T15:46:36.130Z,14.80
2023-04-28T15:49:08.602Z,14.80
2023-04-28T15:51:40.326Z,14.90
2023-04-28T15:54:12.071Z,14.90
2023-04-28T15:56:44.253Z,14.90
2023-04-28T15:59:18.427Z,14.90
2023-04-28T16:01:50.271Z,14.90
2023-04-28T16:04:22.275Z,14.90
2023-04-28T16:06:55.419Z,14.90
2023-04-28T16:09:27.177Z,14.90
2023-04-28T16:12:00.020Z,14.90
2023-04-28T16:17:04.578Z,14.80
2023-04-28T16:19:36.719Z,14.80
2023-04-28T16:22:08.587Z,14.70
2023-04-28T16:24:43.707Z,14.70
2023-04-28T16:27:15.464Z,14.70
2023-04-28T16:29:47.216Z,14.70
2023-04-28T16:32:19.029Z,14.70
2023-04-28T16:34:51.187Z,14.80
2023-04-28T16:37:23.092Z,14.80
2023-04-28T16:39:55.509Z,14.90
2023-04-28T16:42:27.294Z,14.80
2023-04-28T16:44:59.862Z,14.90
2023-04-28T16:47:31.651Z,14.90
2023-04-28T16:50:03.547Z,14.90
2023-04-28T16:52:35.226Z,14.90
2023-04-28T16:55:07.666Z,14.90
2023-04-28T16:57:39.421Z,14.90
2023-04-28T17:00:12.022Z,14.90
2023-04-28T17:02:44.142Z,14.90
2023-04-28T17:05:16.062Z,14.90
2023-04-28T17:07:47.820Z,14.90
2023-04-28T17:10:19.633Z,14.90
2023-04-28T17:12:54.708Z,15.00
2023-04-28T17:15:27.121Z,14.90
2023-04-28T17:17:58.897Z,14.90
2023-04-28T17:20:30.641Z,14.90
2023-04-28T17:23:02.458Z,15.00
2023-04-28T17:25:34.141Z,15.10
2023-04-28T17:28:06.660Z,15.10
2023-04-28T17:30:38.767Z,15.10
2023-04-28T17:33:10.842Z,15.20
2023-04-28T17:35:42.532Z,15.10
2023-04-28T17:38:14.267Z,15.10
2023-04-28T17:40:48.541Z,15.00
2023-04-28T17:43:20.843Z,15.00
2023-04-28T17:45:55.895Z,14.90
2023-04-28T17:48:27.765Z,14.90
2023-04-28T17:50:59.604Z,14.80
2023-04-28T17:53:31.629Z,14.80
2023-04-28T17:56:03.426Z,14.90
2023-04-28T17:58:36.392Z,14.90
2023-04-28T18:01:08.695Z,14.90
2023-04-28T18:03:41.309Z,14.80
2023-04-28T18:06:13.849Z,14.80
2023-04-28T18:08:45.922Z,14.70
2023-04-28T18:11:17.637Z,14.70
2023-04-28T18:13:49.339Z,14.70
2023-04-28T18:16:21.094Z,14.70
2023-04-28T18:18:52.917Z,14.70
2023-04-28T18:21:24.662Z,14.60
2023-04-28T18:23:56.334Z,14.60
2023-04-28T18:26:28.027Z,14.50
2023-04-28T18:28:59.747Z,14.50
2023-04-28T18:31:32.092Z,14.50
2023-04-28T18:34:05.101Z,14.40
2023-04-28T18:36:37.289Z,14.40
2023-04-28T18:39:09.991Z,14.30
2023-04-28T18:41:41.769Z,14.20
2023-04-28T18:44:14.080Z,14.20
2023-04-28T18:46:45.841Z,14.20
2023-04-28T18:49:18.215Z,14.20
2023-04-28T18:51:49.980Z,14.10
2023-04-28T18:54:21.860Z,14.00
2023-04-28T18:56:53.763Z,14.10
2023-04-28T18:59:26.392Z,14.00
2023-04-28T19:01:58.504Z,14.00
2023-04-28T19:04:30.957Z,13.90
2023-04-28T19:07:02.881Z,13.90
2023-04-28T19:09:34.630Z,13.80
2023-04-28T19:12:06.420Z,13.70
2023-04-28T19:14:38.112Z,13.60
2023-04-28T19:17:09.853Z,13.50
2023-04-28T19:19:41.723Z,13.50
2023-04-28T19:22:40.131Z,13.40
2023-04-28T19:25:11.963Z,13.30
2023-04-28T19:27:44.625Z,13.20
2023-04-28T19:30:16.843Z,13.10
2023-04-28T19:32:48.661Z,13.00
2023-04-28T19:35:21.058Z,12.90
2023-04-28T19:37:54.055Z,12.80
2023-04-28T19:40:26.509Z,12.70
2023-04-28T19:43:00.009Z,12.60
2023-04-28T19:45:31.944Z,12.60
2023-04-28T19:48:04.157Z,12.50
2023-04-28T19:50:37.345Z,12.50
2023-04-28T19:53:09.422Z,12.40
2023-04-28T19:55:41.234Z,12.40
2023-04-28T19:58:13.883Z,12.40
2023-04-28T20:00:45.697Z,12.40
2023-04-28T20:03:17.621Z,12.40
2023-04-28T20:05:49.445Z,12.30
2023-04-28T20:08:24.143Z,12.30
2023-04-28T20:10:55.999Z,12.20
2023-04-28T20:13:28.456Z,12.20
2023-04-28T20:16:00.584Z,12.10
2023-04-28T20:18:32.305Z,12.10
2023-04-28T20:21:04.064Z,12.00
2023-04-28T20:23:36.722Z,12.00
2023-04-28T20:26:15.908Z,11.90
2023-04-28T20:28:48.390Z,11.90
2023-04-28T20:31:20.258Z,11.90
2023-04-28T20:33:52.527Z,11.80
2023-04-28T20:36:24.597Z,11.80
2023-04-28T20:38:56.573Z,11.80
2023-04-28T20:41:28.281Z,11.80
2023-04-28T20:43:59.992Z,11.80
2023-04-28T20:46:32.284Z,11.80
2023-04-28T20:49:04.490Z,11.80
2023-04-28T20:51:37.385Z,11.70
2023-04-28T20:54:09.095Z,11.70
2023-04-28T20:56:42.079Z,11.70
2023-04-28T20:59:13.910Z,11.60
2023-04-28T21:01:45.759Z,11.60
2023-04-28T21:04:17.603Z,11.60
2023-04-28T21:06:50.637Z,11.60
2023-04-28T21:09:25.019Z,11.60
2023-04-28T21:11:57.046Z,11.60
2023-04-28T21:14:28.927Z,11.70
2023-04-28T21:17:02.268Z,11.80
2023-04-28T21:19:34.114Z,11.90
2023-04-28T21:22:05.921Z,12.00
2023-04-28T21:24:37.606Z,12.20
2023-04-28T21:27:09.287Z,12.30
2023-04-28T21:29:40.998Z,12.30
2023-04-28T21:32:13.332Z,12.40
2023-04-28T21:34:48.872Z,12.40
2023-04-28T21:37:20.560Z,12.40
2023-04-28T21:39:52.856Z,12.50
2023-04-28T21:42:25.068Z,12.50
2023-04-28T21:44:57.356Z,12.50
2023-04-28T21:47:29.844Z,12.30
2023-04-28T21:50:02.598Z,12.20
2023-04-28T21:52:34.391Z,12.10
2023-04-28T21:55:06.703Z,12.00
2023-04-28T21:57:38.512Z,12.10
2023-04-28T22:00:14.641Z,12.20
2023-04-28T22:02:46.629Z,12.00
2023-04-28T22:05:18.971Z,12.20
2023-04-28T22:07:51.693Z,12.30
2023-04-28T22:10:23.525Z,12.30
2023-04-28T22:12:55.250Z,12.30
2023-04-28T22:15:27.197Z,12.30
2023-04-28T22:17:59.099Z,12.40
2023-04-28T22:20:32.449Z,12.50
2023-04-28T22:23:04.613Z,12.30
2023-04-28T22:25:36.672Z,12.20
2023-04-28T22:28:08.716Z,12.20
2023-04-28T22:30:40.430Z,12.20
2023-04-28T22:33:12.188Z,12.10
2023-04-28T22:35:43.856Z,12.30
2023-04-28T22:38:15.723Z,12.10
2023-04-28T22:40:47.517Z,11.90
2023-04-28T22:43:19.291Z,11.90
2023-04-28T22:45:52.496Z,12.10
2023-04-28T22:48:24.472Z,12.30
2023-04-28T22:50:56.450Z,12.30
2023-04-28T22:53:28.230Z,12.40
2023-04-28T22:56:02.931Z,12.40
2023-04-28T22:58:34.734Z,12.40
2023-04-28T23:01:06.906Z,12.50
2023-04-28T23:03:38.861Z,12.50
2023-04-28T23:06:10.743Z,12.50
2023-04-28T23:08:42.491Z,12.50
2023-04-28T23:11:14.183Z,12.50
2023-04-28T23:13:45.953Z,12.40
2023-04-28T23:16:18.180Z,12.40
2023-04-28T23:18:49.909Z,12.40
2023-04-28T23:21:21.691Z,12.40
2023-04-28T23:23:53.414Z,12.40
2023-04-28T23:26:25.525Z,12.40
2023-04-28T23:28:57.540Z,12.50
2023-04-28T23:31:30.602Z,12.40
2023-04-28T23:34:03.944Z,12.30
2023-04-28T23:36:37.830Z,12.10
2023-04-28T23:39:09.616Z,12.00
2023-04-28T23:41:41.634Z,12.00
2023-04-28T23:44:13.503Z,12.00
2023-04-28T23:46:45.330Z,11.90
2023-04-28T23:49:17.206Z,11.80
2023-04-28T23:51:48.895Z,11.70
2023-04-28T23:54:20.593Z,11.60
2023-04-28T23:56:52.305Z,11.50
2023-04-28T23:59:24.136Z,11.60
